sensor_id;sensor_type;location;lat;lon;timestamp;pressure;altitude;pressure_sealevel;temperature;humidity
22605;BME280;11469;49.024;8.246;2024-01-25T00:01:08;101712.78;;;10.34;100.00
22605;BME280;11469;49.024;8.246;2024-01-25T00:03:35;101709.63;;;10.36;100.00
22605;BME280;11469;49.024;8.246;2024-01-25T00:06:00;101708.00;;;10.35;100.00
22605;BME280;11469;49.024;8.246;2024-01-25T00:08:26;101699.06;;;10.41;100.00
22605;BME280;11469;49.024;8.246;2024-01-25T00:10:51;101696.78;;;10.35;100.00
22605;BME280;11469;49.024;8.246;2024-01-25T00:13:16;101700.09;;;10.37;100.00
22605;BME280;11469;49.024;8.246;2024-01-25T00:15:42;101708.66;;;10.32;100.00
22605;BME280;11469;49.024;8.246;2024-01-25T00:18:07;101695.78;;;10.30;100.00
22605;BME280;11469;49.024;8.246;2024-01-25T00:20:33;101700.25;;;10.32;100.00
22605;BME280;11469;49.024;8.246;2024-01-25T00:22:58;101697.75;;;10.30;100.00
22605;BME280;11469;49.024;8.246;2024-01-25T00:25:24;101689.84;;;10.32;100.00
22605;BME280;11469;49.024;8.246;2024-01-25T00:27:49;101695.63;;;10.27;100.00
22605;BME280;11469;49.024;8.246;2024-01-25T00:30:14;101703.69;;;10.28;100.00
22605;BME280;11469;49.024;8.246;2024-01-25T00:32:40;101697.59;;;10.26;100.00
22605;BME280;11469;49.024;8.246;2024-01-25T00:35:06;101692.31;;;10.25;100.00
22605;BME280;11469;49.024;8.246;2024-01-25T00:37:31;101699.75;;;10.29;100.00
22605;BME280;11469;49.024;8.246;2024-01-25T00:39:57;101703.69;;;10.28;100.00
22605;BME280;11469;49.024;8.246;2024-01-25T00:42:23;101699.75;;;10.29;100.00
22605;BME280;11469;49.024;8.246;2024-01-25T00:44:49;101686.22;;;10.32;100.00
22605;BME280;11469;49.024;8.246;2024-01-25T00:47:15;101683.44;;;10.32;100.00
22605;BME280;11469;49.024;8.246;2024-01-25T00:49:41;101682.44;;;10.27;100.00
22605;BME280;11469;49.024;8.246;2024-01-25T00:52:06;101689.69;;;10.28;100.00
22605;BME280;11469;49.024;8.246;2024-01-25T00:54:32;101685.56;;;10.26;100.00
22605;BME280;11469;49.024;8.246;2024-01-25T00:56:58;101687.06;;;10.32;100.00
22605;BME280;11469;49.024;8.246;2024-01-25T00:59:24;101693.31;;;10.29;100.00
22605;BME280;11469;49.024;8.246;2024-01-25T01:01:52;101684.09;;;10.28;100.00
22605;BME280;11469;49.024;8.246;2024-01-25T01:04:19;101685.06;;;10.24;100.00
22605;BME280;11469;49.024;8.246;2024-01-25T01:06:45;101690.34;;;10.25;100.00
22605;BME280;11469;49.024;8.246;2024-01-25T01:09:13;101689.03;;;10.23;100.00
22605;BME280;11469;49.024;8.246;2024-01-25T01:11:40;101697.75;;;10.21;100.00
22605;BME280;11469;49.024;8.246;2024-01-25T01:14:06;101705.84;;;10.23;100.00
22605;BME280;11469;49.024;8.246;2024-01-25T01:16:31;101696.59;;;10.22;100.00
22605;BME280;11469;49.024;8.246;2024-01-25T01:18:58;101704.69;;;10.24;100.00
22605;BME280;11469;49.024;8.246;2024-01-25T01:21:32;101702.69;;;10.24;100.00
22605;BME280;11469;49.024;8.246;2024-01-25T01:23:57;101696.09;;;10.20;100.00
22605;BME280;11469;49.024;8.246;2024-01-25T01:26:22;101702.00;;;10.19;100.00
22605;BME280;11469;49.024;8.246;2024-01-25T01:28:48;101702.00;;;10.19;100.00
22605;BME280;11469;49.024;8.246;2024-01-25T01:31:13;101710.41;;;10.19;100.00
22605;BME280;11469;49.024;8.246;2024-01-25T01:33:39;101703.00;;;10.14;100.00
22605;BME280;11469;49.024;8.246;2024-01-25T01:36:04;101707.94;;;10.17;100.00
22605;BME280;11469;49.024;8.246;2024-01-25T01:38:30;101709.78;;;10.22;100.00
22605;BME280;11469;49.024;8.246;2024-01-25T01:40:55;101710.63;;;10.22;100.00
22605;BME280;11469;49.024;8.246;2024-01-25T01:43:21;101716.38;;;10.26;100.00
22605;BME280;11469;49.024;8.246;2024-01-25T01:45:48;101716.88;;;10.19;100.00
22605;BME280;11469;49.024;8.246;2024-01-25T01:48:14;101711.56;;;10.18;100.00
22605;BME280;11469;49.024;8.246;2024-01-25T01:50:40;101704.63;;;10.15;100.00
22605;BME280;11469;49.024;8.246;2024-01-25T01:53:06;101706.66;;;10.23;100.00
22605;BME280;11469;49.024;8.246;2024-01-25T01:55:31;101706.34;;;10.34;100.00
22605;BME280;11469;49.024;8.246;2024-01-25T01:57:57;101712.59;;;10.30;100.00
22605;BME280;11469;49.024;8.246;2024-01-25T02:00:26;101702.53;;;10.29;100.00
22605;BME280;11469;49.024;8.246;2024-01-25T02:02:51;101710.47;;;10.27;100.00
22605;BME280;11469;49.024;8.246;2024-01-25T02:05:17;101702.38;;;10.26;100.00
22605;BME280;11469;49.024;8.246;2024-01-25T02:07:43;101701.72;;;10.29;100.00
22605;BME280;11469;49.024;8.246;2024-01-25T02:10:09;101703.84;;;10.23;100.00
22605;BME280;11469;49.024;8.246;2024-01-25T02:12:35;101701.41;;;10.30;100.00
22605;BME280;11469;49.024;8.246;2024-01-25T02:15:01;101701.56;;;10.34;100.00
22605;BME280;11469;49.024;8.246;2024-01-25T02:17:26;101698.09;;;10.37;100.00
22605;BME280;11469;49.024;8.246;2024-01-25T02:19:51;101702.22;;;10.40;100.00
22605;BME280;11469;49.024;8.246;2024-01-25T02:22:19;101698.25;;;10.49;99.29
22605;BME280;11469;49.024;8.246;2024-01-25T02:24:45;101694.94;;;10.47;98.92
22605;BME280;11469;49.024;8.246;2024-01-25T02:27:10;101698.41;;;10.53;98.91
22605;BME280;11469;49.024;8.246;2024-01-25T02:29:36;101688.84;;;10.45;99.10
22605;BME280;11469;49.024;8.246;2024-01-25T02:32:02;101688.53;;;10.47;98.37
22605;BME280;11469;49.024;8.246;2024-01-25T02:34:27;101687.69;;;10.46;98.86
22605;BME280;11469;49.024;8.246;2024-01-25T02:36:53;101686.03;;;10.45;99.01
22605;BME280;11469;49.024;8.246;2024-01-25T02:39:18;101700.72;;;10.42;99.15
22605;BME280;11469;49.024;8.246;2024-01-25T02:41:43;101693.47;;;10.41;98.57
22605;BME280;11469;49.024;8.246;2024-01-25T02:44:10;101696.94;;;10.38;98.56
22605;BME280;11469;49.024;8.246;2024-01-25T02:46:36;101699.59;;;10.35;99.08
22605;BME280;11469;49.024;8.246;2024-01-25T02:49:01;101699.41;;;10.31;99.13
22605;BME280;11469;49.024;8.246;2024-01-25T02:51:27;101698.91;;;10.29;99.11
22605;BME280;11469;49.024;8.246;2024-01-25T02:53:52;101702.38;;;10.26;99.40
22605;BME280;11469;49.024;8.246;2024-01-25T02:56:18;101694.13;;;10.29;98.98
22605;BME280;11469;49.024;8.246;2024-01-25T02:58:43;101707.00;;;10.30;98.76
22605;BME280;11469;49.024;8.246;2024-01-25T03:01:09;101696.78;;;10.35;97.31
22605;BME280;11469;49.024;8.246;2024-01-25T03:03:34;101699.41;;;10.31;98.33
22605;BME280;11469;49.024;8.246;2024-01-25T03:05:59;101703.88;;;10.32;98.42
22605;BME280;11469;49.024;8.246;2024-01-25T03:08:25;101704.69;;;10.33;97.31
22605;BME280;11469;49.024;8.246;2024-01-25T03:10:50;101703.88;;;10.32;97.05
22605;BME280;11469;49.024;8.246;2024-01-25T03:13:16;101700.75;;;10.34;96.84
22605;BME280;11469;49.024;8.246;2024-01-25T03:15:42;101708.47;;;10.28;97.65
22605;BME280;11469;49.024;8.246;2024-01-25T03:18:09;101708.16;;;10.29;97.48
22605;BME280;11469;49.024;8.246;2024-01-25T03:20:34;101715.25;;;10.27;97.63
22605;BME280;11469;49.024;8.246;2024-01-25T03:23:00;101718.69;;;10.24;97.26
22605;BME280;11469;49.024;8.246;2024-01-25T03:25:25;101711.75;;;10.21;97.19
22605;BME280;11469;49.024;8.246;2024-01-25T03:27:50;101714.25;;;10.23;97.03
22605;BME280;11469;49.024;8.246;2024-01-25T03:30:16;101715.06;;;10.23;97.13
22605;BME280;11469;49.024;8.246;2024-01-25T03:32:41;101729.06;;;10.23;96.67
22605;BME280;11469;49.024;8.246;2024-01-25T03:35:07;101730.34;;;10.17;97.16
22605;BME280;11469;49.024;8.246;2024-01-25T03:37:32;101728.19;;;10.14;97.20
22605;BME280;11469;49.024;8.246;2024-01-25T03:39:58;101733.97;;;10.18;97.12
22605;BME280;11469;49.024;8.246;2024-01-25T03:42:23;101739.72;;;10.13;97.42
22605;BME280;11469;49.024;8.246;2024-01-25T03:44:48;101745.97;;;10.10;98.30
22605;BME280;11469;49.024;8.246;2024-01-25T03:47:14;101752.25;;;10.07;98.07
22605;BME280;11469;49.024;8.246;2024-01-25T03:49:39;101757.84;;;10.07;98.24
22605;BME280;11469;49.024;8.246;2024-01-25T03:52:05;101753.22;;;10.02;98.92
22605;BME280;11469;49.024;8.246;2024-01-25T03:54:31;101755.50;;;10.00;99.04
22605;BME280;11469;49.024;8.246;2024-01-25T03:56:56;101752.88;;;9.95;98.57
22605;BME280;11469;49.024;8.246;2024-01-25T03:59:21;101770.81;;;9.94;98.86
22605;BME280;11469;49.024;8.246;2024-01-25T04:01:47;101772.47;;;9.95;99.36
22605;BME280;11469;49.024;8.246;2024-01-25T04:04:13;101764.56;;;9.97;98.97
22605;BME280;11469;49.024;8.246;2024-01-25T04:06:41;101774.47;;;10.03;98.27
22605;BME280;11469;49.024;8.246;2024-01-25T04:09:08;101782.19;;;9.97;98.08
22605;BME280;11469;49.024;8.246;2024-01-25T04:11:36;101779.44;;;10.06;97.58
22605;BME280;11469;49.024;8.246;2024-01-25T04:14:01;101772.34;;;10.09;97.09
22605;BME280;11469;49.024;8.246;2024-01-25T04:16:27;101781.22;;;10.02;96.99
22605;BME280;11469;49.024;8.246;2024-01-25T04:18:52;101781.38;;;9.97;97.36
22605;BME280;11469;49.024;8.246;2024-01-25T04:21:18;101786.47;;;9.95;98.03
22605;BME280;11469;49.024;8.246;2024-01-25T04:23:43;101769.16;;;9.93;97.91
22605;BME280;11469;49.024;8.246;2024-01-25T04:26:08;101781.03;;;9.98;96.96
22605;BME280;11469;49.024;8.246;2024-01-25T04:28:34;101778.91;;;9.95;97.12
22605;BME280;11469;49.024;8.246;2024-01-25T04:30:59;101786.78;;;9.93;97.60
22605;BME280;11469;49.024;8.246;2024-01-25T04:33:25;101791.91;;;9.91;97.98
22605;BME280;11469;49.024;8.246;2024-01-25T04:35:50;101792.41;;;9.93;97.18
22605;BME280;11469;49.024;8.246;2024-01-25T04:38:15;101799.66;;;9.86;97.86
22605;BME280;11469;49.024;8.246;2024-01-25T04:40:41;101793.34;;;9.80;98.67
22605;BME280;11469;49.024;8.246;2024-01-25T04:43:06;101788.22;;;9.74;99.09
22605;BME280;11469;49.024;8.246;2024-01-25T04:45:31;101786.06;;;9.71;99.42
22605;BME280;11469;49.024;8.246;2024-01-25T04:47:57;101786.38;;;9.69;98.91
22605;BME280;11469;49.024;8.246;2024-01-25T04:50:22;101788.19;;;9.65;99.03
22605;BME280;11469;49.024;8.246;2024-01-25T04:52:48;101786.53;;;9.64;99.50
22605;BME280;11469;49.024;8.246;2024-01-25T04:55:13;101794.09;;;9.63;99.48
22605;BME280;11469;49.024;8.246;2024-01-25T04:57:38;101796.38;;;9.61;99.13
22605;BME280;11469;49.024;8.246;2024-01-25T05:00:04;101794.75;;;9.60;99.49
22605;BME280;11469;49.024;8.246;2024-01-25T05:02:30;101802.63;;;9.58;99.81
22605;BME280;11469;49.024;8.246;2024-01-25T05:04:55;101812.94;;;9.49;100.00
22605;BME280;11469;49.024;8.246;2024-01-25T05:07:21;101818.03;;;9.47;100.00
22605;BME280;11469;49.024;8.246;2024-01-25T05:09:47;101815.41;;;9.42;100.00
22605;BME280;11469;49.024;8.246;2024-01-25T05:12:12;101812.91;;;9.41;100.00
22605;BME280;11469;49.024;8.246;2024-01-25T05:14:37;101812.41;;;9.39;100.00
22605;BME280;11469;49.024;8.246;2024-01-25T05:17:03;101816.50;;;9.32;100.00
22605;BME280;11469;49.024;8.246;2024-01-25T05:19:28;101817.25;;;9.24;100.00
22605;BME280;11469;49.024;8.246;2024-01-25T05:21:54;101824.94;;;9.19;100.00
22605;BME280;11469;49.024;8.246;2024-01-25T05:24:19;101825.06;;;9.14;100.00
22605;BME280;11469;49.024;8.246;2024-01-25T05:26:44;101818.47;;;9.10;100.00
22605;BME280;11469;49.024;8.246;2024-01-25T05:29:10;101817.75;;;9.04;100.00
22605;BME280;11469;49.024;8.246;2024-01-25T05:31:35;101808.34;;;9.00;100.00
22605;BME280;11469;49.024;8.246;2024-01-25T05:34:01;101803.53;;;8.92;100.00
22605;BME280;11469;49.024;8.246;2024-01-25T05:36:26;101814.31;;;8.85;100.00
22605;BME280;11469;49.024;8.246;2024-01-25T05:38:51;101817.56;;;8.78;100.00
22605;BME280;11469;49.024;8.246;2024-01-25T05:41:17;101816.22;;;8.76;100.00
22605;BME280;11469;49.024;8.246;2024-01-25T05:43:42;101814.47;;;8.66;100.00
22605;BME280;11469;49.024;8.246;2024-01-25T05:46:07;101827.75;;;8.60;100.00
22605;BME280;11469;49.024;8.246;2024-01-25T05:48:34;101831.72;;;8.46;100.00
22605;BME280;11469;49.024;8.246;2024-01-25T05:51:00;101835.47;;;8.41;100.00
22605;BME280;11469;49.024;8.246;2024-01-25T05:53:25;101839.81;;;8.34;100.00
22605;BME280;11469;49.024;8.246;2024-01-25T05:55:51;101836.25;;;8.28;100.00
22605;BME280;11469;49.024;8.246;2024-01-25T05:58:16;101835.44;;;8.27;100.00
22605;BME280;11469;49.024;8.246;2024-01-25T06:00:42;101833.56;;;8.23;100.00
22605;BME280;11469;49.024;8.246;2024-01-25T06:03:08;101832.03;;;8.17;100.00
22605;BME280;11469;49.024;8.246;2024-01-25T06:05:33;101825.72;;;8.11;100.00
22605;BME280;11469;49.024;8.246;2024-01-25T06:07:58;101831.00;;;8.13;100.00
22605;BME280;11469;49.024;8.246;2024-01-25T06:10:24;101824.06;;;8.10;100.00
22605;BME280;11469;49.024;8.246;2024-01-25T06:12:49;101821.69;;;8.04;100.00
22605;BME280;11469;49.024;8.246;2024-01-25T06:15:15;101824.16;;;8.05;100.00
22605;BME280;11469;49.024;8.246;2024-01-25T06:17:40;101828.53;;;7.97;100.00
22605;BME280;11469;49.024;8.246;2024-01-25T06:20:06;101823.25;;;7.96;100.00
22605;BME280;11469;49.024;8.246;2024-01-25T06:22:31;101822.53;;;7.90;100.00
22605;BME280;11469;49.024;8.246;2024-01-25T06:24:57;101825.09;;;7.87;100.00
22605;BME280;11469;49.024;8.246;2024-01-25T06:27:22;101827.09;;;8.00;100.00
22605;BME280;11469;49.024;8.246;2024-01-25T06:29:47;101832.16;;;7.98;100.00
22605;BME280;11469;49.024;8.246;2024-01-25T06:32:13;101821.41;;;7.91;100.00
22605;BME280;11469;49.024;8.246;2024-01-25T06:34:38;101832.88;;;7.90;100.00
22605;BME280;11469;49.024;8.246;2024-01-25T06:37:03;101823.34;;;7.91;100.00
22605;BME280;11469;49.024;8.246;2024-01-25T06:39:29;101811.66;;;7.89;100.00
22605;BME280;11469;49.024;8.246;2024-01-25T06:41:54;101813.72;;;7.83;100.00
22605;BME280;11469;49.024;8.246;2024-01-25T06:44:20;101815.28;;;7.76;100.00
22605;BME280;11469;49.024;8.246;2024-01-25T06:46:45;101822.91;;;7.70;100.00
22605;BME280;11469;49.024;8.246;2024-01-25T06:49:11;101829.94;;;7.68;100.00
22605;BME280;11469;49.024;8.246;2024-01-25T06:51:36;101823.84;;;7.65;100.00
22605;BME280;11469;49.024;8.246;2024-01-25T06:54:02;101818.88;;;7.62;100.00
22605;BME280;11469;49.024;8.246;2024-01-25T06:56:27;101814.22;;;7.58;100.00
22605;BME280;11469;49.024;8.246;2024-01-25T06:58:52;101806.28;;;7.51;100.00
22605;BME280;11469;49.024;8.246;2024-01-25T07:01:21;101813.81;;;7.51;100.00
22605;BME280;11469;49.024;8.246;2024-01-25T07:03:47;101816.91;;;7.49;100.00
22605;BME280;11469;49.024;8.246;2024-01-25T07:06:13;101818.03;;;7.48;100.00
22605;BME280;11469;49.024;8.246;2024-01-25T07:08:38;101820.22;;;7.51;100.00
22605;BME280;11469;49.024;8.246;2024-01-25T07:11:03;101814.13;;;7.49;100.00
22605;BME280;11469;49.024;8.246;2024-01-25T07:13:29;101812.97;;;7.50;100.00
22605;BME280;11469;49.024;8.246;2024-01-25T07:15:54;101823.09;;;7.46;100.00
22605;BME280;11469;49.024;8.246;2024-01-25T07:18:20;101831.69;;;7.50;100.00
22605;BME280;11469;49.024;8.246;2024-01-25T07:20:45;101822.78;;;7.48;100.00
22605;BME280;11469;49.024;8.246;2024-01-25T07:23:10;101821.88;;;7.52;100.00
22605;BME280;11469;49.024;8.246;2024-01-25T07:25:36;101815.47;;;7.52;100.00
22605;BME280;11469;49.024;8.246;2024-01-25T07:28:02;101819.38;;;7.51;100.00
22605;BME280;11469;49.024;8.246;2024-01-25T07:30:28;101825.59;;;7.48;100.00
22605;BME280;11469;49.024;8.246;2024-01-25T07:32:53;101821.44;;;7.45;100.00
22605;BME280;11469;49.024;8.246;2024-01-25T07:35:19;101821.84;;;7.39;100.00
22605;BME280;11469;49.024;8.246;2024-01-25T07:37:44;101832.69;;;7.40;100.00
22605;BME280;11469;49.024;8.246;2024-01-25T07:40:10;101833.53;;;7.41;100.00
22605;BME280;11469;49.024;8.246;2024-01-25T07:42:36;101841.66;;;7.37;100.00
22605;BME280;11469;49.024;8.246;2024-01-25T07:45:01;101848.06;;;7.38;100.00
22605;BME280;11469;49.024;8.246;2024-01-25T07:47:27;101843.09;;;7.35;100.00
22605;BME280;11469;49.024;8.246;2024-01-25T07:49:52;101849.00;;;7.33;100.00
22605;BME280;11469;49.024;8.246;2024-01-25T07:52:17;101862.94;;;7.33;100.00
22605;BME280;11469;49.024;8.246;2024-01-25T07:54:43;101863.47;;;7.35;100.00
22605;BME280;11469;49.024;8.246;2024-01-25T07:57:09;101861.53;;;7.49;100.00
22605;BME280;11469;49.024;8.246;2024-01-25T07:59:35;101864.63;;;7.48;100.00
22605;BME280;11469;49.024;8.246;2024-01-25T08:02:00;101867.13;;;7.49;100.00
22605;BME280;11469;49.024;8.246;2024-01-25T08:04:25;101854.22;;;7.53;100.00
22605;BME280;11469;49.024;8.246;2024-01-25T08:06:52;101862.28;;;7.55;100.00
22605;BME280;11469;49.024;8.246;2024-01-25T08:09:17;101865.25;;;7.58;100.00
22605;BME280;11469;49.024;8.246;2024-01-25T08:11:44;101869.09;;;7.62;100.00
22605;BME280;11469;49.024;8.246;2024-01-25T08:14:10;101867.97;;;7.63;100.00
22605;BME280;11469;49.024;8.246;2024-01-25T08:16:36;101866.53;;;7.66;100.00
22605;BME280;11469;49.024;8.246;2024-01-25T08:19:01;101870.66;;;7.69;100.00
22605;BME280;11469;49.024;8.246;2024-01-25T08:21:27;101866.13;;;7.73;100.00
22605;BME280;11469;49.024;8.246;2024-01-25T08:23:52;101861.81;;;7.80;100.00
22605;BME280;11469;49.024;8.246;2024-01-25T08:26:18;101871.22;;;7.84;100.00
22605;BME280;11469;49.024;8.246;2024-01-25T08:28:43;101857.69;;;7.91;100.00
22605;BME280;11469;49.024;8.246;2024-01-25T08:31:10;101859.47;;;8.01;100.00
22605;BME280;11469;49.024;8.246;2024-01-25T08:33:35;101857.56;;;8.10;100.00
22605;BME280;11469;49.024;8.246;2024-01-25T08:36:01;101865.22;;;8.18;100.00
22605;BME280;11469;49.024;8.246;2024-01-25T08:38:26;101858.72;;;8.23;100.00
22605;BME280;11469;49.024;8.246;2024-01-25T08:40:52;101856.44;;;8.25;100.00
22605;BME280;11469;49.024;8.246;2024-01-25T08:43:17;101853.84;;;8.28;100.00
22605;BME280;11469;49.024;8.246;2024-01-25T08:45:43;101857.41;;;8.34;100.00
22605;BME280;11469;49.024;8.246;2024-01-25T08:48:08;101850.06;;;8.38;100.00
22605;BME280;11469;49.024;8.246;2024-01-25T08:50:35;101856.69;;;8.42;100.00
22605;BME280;11469;49.024;8.246;2024-01-25T08:53:01;101852.31;;;8.50;100.00
22605;BME280;11469;49.024;8.246;2024-01-25T08:55:26;101853.31;;;8.54;100.00
22605;BME280;11469;49.024;8.246;2024-01-25T08:57:52;101848.25;;;8.56;100.00
22605;BME280;11469;49.024;8.246;2024-01-25T09:00:17;101855.38;;;8.62;100.00
22605;BME280;11469;49.024;8.246;2024-01-25T09:02:43;101863.13;;;8.65;100.00
22605;BME280;11469;49.024;8.246;2024-01-25T09:05:09;101869.97;;;8.73;100.00
22605;BME280;11469;49.024;8.246;2024-01-25T09:07:34;101862.28;;;8.78;100.00
22605;BME280;11469;49.024;8.246;2024-01-25T09:10:00;101866.94;;;8.83;100.00
22605;BME280;11469;49.024;8.246;2024-01-25T09:12:26;101867.34;;;8.90;100.00
22605;BME280;11469;49.024;8.246;2024-01-25T09:14:51;101865.75;;;8.97;100.00
22605;BME280;11469;49.024;8.246;2024-01-25T09:17:17;101874.53;;;9.05;100.00
22605;BME280;11469;49.024;8.246;2024-01-25T09:19:50;101870.03;;;9.17;100.00
22605;BME280;11469;49.024;8.246;2024-01-25T09:22:16;101858.72;;;9.22;100.00
22605;BME280;11469;49.024;8.246;2024-01-25T09:24:44;101873.47;;;9.37;100.00
22605;BME280;11469;49.024;8.246;2024-01-25T09:27:09;101877.78;;;9.43;100.00
22605;BME280;11469;49.024;8.246;2024-01-25T09:29:35;101881.91;;;9.45;100.00
22605;BME280;11469;49.024;8.246;2024-01-25T09:32:03;101876.81;;;9.47;100.00
22605;BME280;11469;49.024;8.246;2024-01-25T09:34:28;101880.94;;;9.50;100.00
22605;BME280;11469;49.024;8.246;2024-01-25T09:36:54;101877.50;;;9.53;100.00
22605;BME280;11469;49.024;8.246;2024-01-25T09:39:19;101882.66;;;9.59;100.00
22605;BME280;11469;49.024;8.246;2024-01-25T09:41:45;101882.72;;;9.68;100.00
22605;BME280;11469;49.024;8.246;2024-01-25T09:44:11;101878.25;;;9.67;100.00
22605;BME280;11469;49.024;8.246;2024-01-25T09:46:37;101880.28;;;9.75;100.00
22605;BME280;11469;49.024;8.246;2024-01-25T09:49:02;101883.91;;;9.76;100.00
22605;BME280;11469;49.024;8.246;2024-01-25T09:51:37;101888.25;;;9.82;100.00
22605;BME280;11469;49.024;8.246;2024-01-25T09:54:03;101885.31;;;9.87;100.00
22605;BME280;11469;49.024;8.246;2024-01-25T09:56:31;101892.75;;;9.91;100.00
22605;BME280;11469;49.024;8.246;2024-01-25T09:58:58;101895.19;;;9.93;100.00
22605;BME280;11469;49.024;8.246;2024-01-25T10:01:24;101899.50;;;9.90;100.00
22605;BME280;11469;49.024;8.246;2024-01-25T10:03:49;101910.38;;;9.92;100.00
22605;BME280;11469;49.024;8.246;2024-01-25T10:06:15;101903.16;;;9.99;100.00
22605;BME280;11469;49.024;8.246;2024-01-25T10:08:42;101902.69;;;10.06;100.00
22605;BME280;11469;49.024;8.246;2024-01-25T10:11:07;101895.78;;;10.12;100.00
22605;BME280;11469;49.024;8.246;2024-01-25T10:13:47;101896.19;;;10.19;100.00
22605;BME280;11469;49.024;8.246;2024-01-25T10:16:15;101898.84;;;10.24;100.00
22605;BME280;11469;49.024;8.246;2024-01-25T10:18:42;101889.81;;;10.27;100.00
22605;BME280;11469;49.024;8.246;2024-01-25T10:21:12;101891.16;;;10.39;100.00
22605;BME280;11469;49.024;8.246;2024-01-25T10:23:38;101891.53;;;10.54;100.00
22605;BME280;11469;49.024;8.246;2024-01-25T10:26:04;101898.31;;;10.62;100.00
22605;BME280;11469;49.024;8.246;2024-01-25T10:28:29;101891.41;;;10.68;100.00
22605;BME280;11469;49.024;8.246;2024-01-25T10:31:01;101890.41;;;10.73;100.00
22605;BME280;11469;49.024;8.246;2024-01-25T10:33:27;101891.75;;;10.84;100.00
22605;BME280;11469;49.024;8.246;2024-01-25T10:35:56;101885.13;;;10.88;100.00
22605;BME280;11469;49.024;8.246;2024-01-25T10:38:29;101888.28;;;10.95;100.00
22605;BME280;11469;49.024;8.246;2024-01-25T10:40:56;101881.84;;;10.95;100.00
22605;BME280;11469;49.024;8.246;2024-01-25T10:43:22;101892.91;;;10.91;99.74
22605;BME280;11469;49.024;8.246;2024-01-25T10:45:48;101890.75;;;10.97;100.00
22605;BME280;11469;49.024;8.246;2024-01-25T10:48:13;101892.91;;;11.00;99.34
22605;BME280;11469;49.024;8.246;2024-01-25T10:50:39;101897.03;;;11.46;100.00
22605;BME280;11469;49.024;8.246;2024-01-25T10:53:06;101886.38;;;11.94;100.00
22605;BME280;11469;49.024;8.246;2024-01-25T10:55:32;101881.59;;;12.62;97.96
22605;BME280;11469;49.024;8.246;2024-01-25T10:57:58;101875.69;;;12.26;93.10
22605;BME280;11469;49.024;8.246;2024-01-25T11:00:23;101877.50;;;11.75;94.67
22605;BME280;11469;49.024;8.246;2024-01-25T11:02:51;101870.94;;;11.37;97.41
22605;BME280;11469;49.024;8.246;2024-01-25T11:05:17;101876.25;;;11.04;99.78
22605;BME280;11469;49.024;8.246;2024-01-25T11:07:49;101876.59;;;10.85;100.00
22605;BME280;11469;49.024;8.246;2024-01-25T11:10:19;101868.31;;;10.80;100.00
22605;BME280;11469;49.024;8.246;2024-01-25T11:12:54;101876.88;;;10.66;100.00
22605;BME280;11469;49.024;8.246;2024-01-25T11:15:30;101872.06;;;10.58;100.00
22605;BME280;11469;49.024;8.246;2024-01-25T11:17:56;101878.34;;;10.63;100.00
22605;BME280;11469;49.024;8.246;2024-01-25T11:20:27;101860.41;;;10.73;100.00
22605;BME280;11469;49.024;8.246;2024-01-25T11:22:58;101859.09;;;10.79;100.00
22605;BME280;11469;49.024;8.246;2024-01-25T11:25:27;101861.25;;;10.82;100.00
22605;BME280;11469;49.024;8.246;2024-01-25T11:27:53;101861.22;;;10.91;100.00
22605;BME280;11469;49.024;8.246;2024-01-25T11:30:19;101858.09;;;11.10;100.00
22605;BME280;11469;49.024;8.246;2024-01-25T11:32:49;101856.28;;;11.22;98.01
22605;BME280;11469;49.024;8.246;2024-01-25T11:35:15;101852.81;;;11.34;96.92
22605;BME280;11469;49.024;8.246;2024-01-25T11:37:47;101842.75;;;11.33;94.55
22605;BME280;11469;49.024;8.246;2024-01-25T11:40:15;101831.81;;;11.40;93.82
22605;BME280;11469;49.024;8.246;2024-01-25T11:42:43;101835.25;;;11.54;93.32
22605;BME280;11469;49.024;8.246;2024-01-25T11:45:12;101838.03;;;11.72;92.73
22605;BME280;11469;49.024;8.246;2024-01-25T11:47:38;101825.22;;;12.00;93.07
22605;BME280;11469;49.024;8.246;2024-01-25T11:50:05;101819.13;;;12.27;90.47
22605;BME280;11469;49.024;8.246;2024-01-25T11:52:32;101813.94;;;12.09;89.13
22605;BME280;11469;49.024;8.246;2024-01-25T11:55:01;101820.38;;;12.09;87.82
22605;BME280;11469;49.024;8.246;2024-01-25T11:57:27;101810.34;;;12.00;88.30
22605;BME280;11469;49.024;8.246;2024-01-25T11:59:54;101806.09;;;11.85;89.05
22605;BME280;11469;49.024;8.246;2024-01-25T12:02:20;101800.78;;;11.92;89.29
22605;BME280;11469;49.024;8.246;2024-01-25T12:04:47;101801.13;;;11.90;88.15
22605;BME280;11469;49.024;8.246;2024-01-25T12:07:12;101789.84;;;11.99;88.86
22605;BME280;11469;49.024;8.246;2024-01-25T12:09:38;101793.78;;;12.07;89.54
22605;BME280;11469;49.024;8.246;2024-01-25T12:12:04;101781.84;;;12.10;86.98
22605;BME280;11469;49.024;8.246;2024-01-25T12:14:30;101779.38;;;12.08;86.72
22605;BME280;11469;49.024;8.246;2024-01-25T12:16:56;101775.06;;;12.11;85.87
22605;BME280;11469;49.024;8.246;2024-01-25T12:19:21;101772.59;;;12.09;87.20
22605;BME280;11469;49.024;8.246;2024-01-25T12:21:47;101771.53;;;12.22;87.28
22605;BME280;11469;49.024;8.246;2024-01-25T12:24:12;101763.72;;;12.28;85.64
22605;BME280;11469;49.024;8.246;2024-01-25T12:26:38;101760.28;;;12.22;84.60
22605;BME280;11469;49.024;8.246;2024-01-25T12:29:03;101760.00;;;12.15;86.46
22605;BME280;11469;49.024;8.246;2024-01-25T12:31:30;101759.81;;;12.20;85.54
22605;BME280;11469;49.024;8.246;2024-01-25T12:33:56;101761.47;;;12.21;85.52
22605;BME280;11469;49.024;8.246;2024-01-25T12:36:21;101756.03;;;12.16;85.32
22605;BME280;11469;49.024;8.246;2024-01-25T12:38:46;101758.50;;;12.18;85.64
22605;BME280;11469;49.024;8.246;2024-01-25T12:41:14;101757.69;;;12.17;86.39